EGNC/CAX METAR and TAF weather

Enter ICAO airport designator
Station Type Date Time Source
EGNC METAR 2019/12/07 09:50 UTC NOAA

EGNC 070950Z 25014KT 9999 BKN012 07/06 Q1007 R88/290095


Station Type Date Time Source
EGNC Decoded METAR 2019/12/07 09:50 UTC NOAA

Carlisle, United Kingdom (EGNC) 54-56N 002-57W
Dec 07, 2019 - 04:50 AM EST / 2019.12.07 0950 UTC
Wind: from the WSW (250 degrees) at 16 MPH (14 KT):0
Visibility: greater than 7 mile(s):0
Sky conditions: mostly cloudy
Temperature: 44 F (7 C)
Dew Point: 42 F (6 C)
Relative Humidity: 93%
Pressure (altimeter): 29.74 in. Hg (1007 hPa)
ob: EGNC 070950Z 25014KT 9999 BKN012 07/06 Q1007 R88/290095
cycle: 10

Station Type Date Time Source
EGNC TAF UTC NOAA

Error!

Example: see airport list